sensor_id;sensor_type;location;lat;lon;timestamp;temperature;humidity
10692;DHT22;5396;50.950;6.988;2023-06-04T00:01:22;14.30;99.90
10692;DHT22;5396;50.950;6.988;2023-06-04T00:03:48;14.30;99.90
10692;DHT22;5396;50.950;6.988;2023-06-04T00:06:13;14.20;99.90
10692;DHT22;5396;50.950;6.988;2023-06-04T00:08:39;14.20;99.90
10692;DHT22;5396;50.950;6.988;2023-06-04T00:11:05;14.20;99.90
10692;DHT22;5396;50.950;6.988;2023-06-04T00:13:31;14.10;99.90
10692;DHT22;5396;50.950;6.988;2023-06-04T00:15:56;14.20;99.90
10692;DHT22;5396;50.950;6.988;2023-06-04T00:18:22;14.20;99.90
10692;DHT22;5396;50.950;6.988;2023-06-04T00:20:47;14.20;99.90
10692;DHT22;5396;50.950;6.988;2023-06-04T00:23:13;14.10;99.90
10692;DHT22;5396;50.950;6.988;2023-06-04T00:25:38;14.10;99.90
10692;DHT22;5396;50.950;6.988;2023-06-04T00:28:04;14.00;99.90
10692;DHT22;5396;50.950;6.988;2023-06-04T00:30:30;14.00;99.90
10692;DHT22;5396;50.950;6.988;2023-06-04T00:32:55;14.00;99.90
10692;DHT22;5396;50.950;6.988;2023-06-04T00:35:21;14.10;99.90
10692;DHT22;5396;50.950;6.988;2023-06-04T00:37:47;14.00;99.90
10692;DHT22;5396;50.950;6.988;2023-06-04T00:40:13;14.00;99.90
10692;DHT22;5396;50.950;6.988;2023-06-04T00:42:38;14.00;99.90
10692;DHT22;5396;50.950;6.988;2023-06-04T00:45:05;14.00;99.90
10692;DHT22;5396;50.950;6.988;2023-06-04T00:47:33;14.00;99.90
10692;DHT22;5396;50.950;6.988;2023-06-04T00:49:59;14.00;99.90
10692;DHT22;5396;50.950;6.988;2023-06-04T00:52:25;14.00;99.90
10692;DHT22;5396;50.950;6.988;2023-06-04T00:54:52;14.00;99.90
10692;DHT22;5396;50.950;6.988;2023-06-04T00:57:22;13.90;99.90
10692;DHT22;5396;50.950;6.988;2023-06-04T00:59:48;13.80;99.90
10692;DHT22;5396;50.950;6.988;2023-06-04T01:02:18;13.80;99.90
10692;DHT22;5396;50.950;6.988;2023-06-04T01:07:29;13.70;99.90
10692;DHT22;5396;50.950;6.988;2023-06-04T01:09:55;13.70;99.90
10692;DHT22;5396;50.950;6.988;2023-06-04T01:12:21;13.80;99.90
10692;DHT22;5396;50.950;6.988;2023-06-04T01:14:47;13.80;99.90
10692;DHT22;5396;50.950;6.988;2023-06-04T01:17:39;13.80;99.90
10692;DHT22;5396;50.950;6.988;2023-06-04T01:25:38;13.80;99.90
10692;DHT22;5396;50.950;6.988;2023-06-04T01:28:05;13.80;99.90
10692;DHT22;5396;50.950;6.988;2023-06-04T01:30:35;13.80;99.90
10692;DHT22;5396;50.950;6.988;2023-06-04T01:33:02;13.70;99.90
10692;DHT22;5396;50.950;6.988;2023-06-04T01:35:29;13.70;99.90
10692;DHT22;5396;50.950;6.988;2023-06-04T01:37:57;13.70;99.90
10692;DHT22;5396;50.950;6.988;2023-06-04T01:40:24;13.60;99.90
10692;DHT22;5396;50.950;6.988;2023-06-04T01:42:50;13.50;99.90
10692;DHT22;5396;50.950;6.988;2023-06-04T01:45:16;13.50;99.90
10692;DHT22;5396;50.950;6.988;2023-06-04T01:47:42;13.50;99.90
10692;DHT22;5396;50.950;6.988;2023-06-04T01:50:08;13.50;99.90
10692;DHT22;5396;50.950;6.988;2023-06-04T01:52:35;13.40;99.90
10692;DHT22;5396;50.950;6.988;2023-06-04T01:55:03;13.30;99.90
10692;DHT22;5396;50.950;6.988;2023-06-04T01:57:28;13.30;99.90
10692;DHT22;5396;50.950;6.988;2023-06-04T01:59:54;13.20;99.90
10692;DHT22;5396;50.950;6.988;2023-06-04T02:02:20;13.20;99.90
10692;DHT22;5396;50.950;6.988;2023-06-04T02:04:45;13.10;99.90
10692;DHT22;5396;50.950;6.988;2023-06-04T02:07:12;13.20;99.90
10692;DHT22;5396;50.950;6.988;2023-06-04T02:09:43;13.20;99.90
10692;DHT22;5396;50.950;6.988;2023-06-04T02:12:09;13.20;99.90
10692;DHT22;5396;50.950;6.988;2023-06-04T02:14:34;13.20;99.90
10692;DHT22;5396;50.950;6.988;2023-06-04T02:17:00;13.20;99.90
10692;DHT22;5396;50.950;6.988;2023-06-04T02:19:26;13.20;99.90
10692;DHT22;5396;50.950;6.988;2023-06-04T02:21:53;13.10;99.90
10692;DHT22;5396;50.950;6.988;2023-06-04T02:24:19;13.10;99.90
10692;DHT22;5396;50.950;6.988;2023-06-04T02:26:44;13.10;99.90
10692;DHT22;5396;50.950;6.988;2023-06-04T02:29:10;13.00;99.90
10692;DHT22;5396;50.950;6.988;2023-06-04T02:31:36;12.90;99.90
10692;DHT22;5396;50.950;6.988;2023-06-04T02:34:02;12.90;99.90
10692;DHT22;5396;50.950;6.988;2023-06-04T02:36:29;12.90;99.90
10692;DHT22;5396;50.950;6.988;2023-06-04T02:38:55;12.80;99.90
10692;DHT22;5396;50.950;6.988;2023-06-04T02:41:21;12.80;99.90
10692;DHT22;5396;50.950;6.988;2023-06-04T02:43:47;12.90;99.90
10692;DHT22;5396;50.950;6.988;2023-06-04T02:46:12;12.90;99.90
10692;DHT22;5396;50.950;6.988;2023-06-04T02:48:38;13.00;99.90
10692;DHT22;5396;50.950;6.988;2023-06-04T02:51:03;13.00;99.90
10692;DHT22;5396;50.950;6.988;2023-06-04T02:53:30;13.00;99.90
10692;DHT22;5396;50.950;6.988;2023-06-04T02:55:55;13.00;99.90
10692;DHT22;5396;50.950;6.988;2023-06-04T02:58:25;12.90;99.90
10692;DHT22;5396;50.950;6.988;2023-06-04T03:00:52;12.90;99.90
10692;DHT22;5396;50.950;6.988;2023-06-04T03:03:18;12.90;99.90
10692;DHT22;5396;50.950;6.988;2023-06-04T03:05:43;12.90;99.90
10692;DHT22;5396;50.950;6.988;2023-06-04T03:08:09;12.90;99.90
10692;DHT22;5396;50.950;6.988;2023-06-04T03:10:34;12.90;99.90
10692;DHT22;5396;50.950;6.988;2023-06-04T03:13:00;12.90;99.90
10692;DHT22;5396;50.950;6.988;2023-06-04T03:15:25;12.90;99.90
10692;DHT22;5396;50.950;6.988;2023-06-04T03:17:51;12.90;99.90
10692;DHT22;5396;50.950;6.988;2023-06-04T03:20:17;12.90;99.90
10692;DHT22;5396;50.950;6.988;2023-06-04T03:22:42;13.00;99.90
10692;DHT22;5396;50.950;6.988;2023-06-04T03:25:08;13.00;99.90
10692;DHT22;5396;50.950;6.988;2023-06-04T03:27:34;13.00;99.90
10692;DHT22;5396;50.950;6.988;2023-06-04T03:30:01;13.00;99.90
10692;DHT22;5396;50.950;6.988;2023-06-04T03:32:27;13.00;99.90
10692;DHT22;5396;50.950;6.988;2023-06-04T03:34:53;13.00;99.90
10692;DHT22;5396;50.950;6.988;2023-06-04T03:37:18;12.90;99.90
10692;DHT22;5396;50.950;6.988;2023-06-04T03:39:44;12.90;99.90
10692;DHT22;5396;50.950;6.988;2023-06-04T03:42:09;12.90;99.90
10692;DHT22;5396;50.950;6.988;2023-06-04T03:44:35;12.90;99.90
10692;DHT22;5396;50.950;6.988;2023-06-04T03:47:01;12.90;99.90
10692;DHT22;5396;50.950;6.988;2023-06-04T03:49:26;13.00;99.90
10692;DHT22;5396;50.950;6.988;2023-06-04T03:51:52;12.90;99.90
10692;DHT22;5396;50.950;6.988;2023-06-04T03:54:17;12.90;99.90
10692;DHT22;5396;50.950;6.988;2023-06-04T03:56:46;12.80;99.90
10692;DHT22;5396;50.950;6.988;2023-06-04T03:59:12;12.70;99.90
10692;DHT22;5396;50.950;6.988;2023-06-04T04:01:37;12.70;99.90
10692;DHT22;5396;50.950;6.988;2023-06-04T04:04:04;12.70;99.90
10692;DHT22;5396;50.950;6.988;2023-06-04T04:06:30;12.80;99.90
10692;DHT22;5396;50.950;6.988;2023-06-04T04:08:56;12.80;99.90
10692;DHT22;5396;50.950;6.988;2023-06-04T04:11:21;12.90;99.90
10692;DHT22;5396;50.950;6.988;2023-06-04T04:13:47;12.90;99.90
10692;DHT22;5396;50.950;6.988;2023-06-04T04:16:13;12.90;99.90
10692;DHT22;5396;50.950;6.988;2023-06-04T04:18:41;13.00;99.90
10692;DHT22;5396;50.950;6.988;2023-06-04T04:21:08;12.90;99.90
10692;DHT22;5396;50.950;6.988;2023-06-04T04:23:37;12.90;99.90
10692;DHT22;5396;50.950;6.988;2023-06-04T04:26:02;13.00;99.90
10692;DHT22;5396;50.950;6.988;2023-06-04T04:28:28;13.00;99.90
10692;DHT22;5396;50.950;6.988;2023-06-04T04:30:56;13.00;99.90
10692;DHT22;5396;50.950;6.988;2023-06-04T04:33:25;13.00;99.90
10692;DHT22;5396;50.950;6.988;2023-06-04T04:35:51;13.00;99.90
10692;DHT22;5396;50.950;6.988;2023-06-04T04:38:19;13.00;99.90
10692;DHT22;5396;50.950;6.988;2023-06-04T04:40:45;13.00;99.90
10692;DHT22;5396;50.950;6.988;2023-06-04T04:43:13;13.10;99.90
10692;DHT22;5396;50.950;6.988;2023-06-04T04:45:39;13.10;99.90
10692;DHT22;5396;50.950;6.988;2023-06-04T04:48:04;13.10;99.90
10692;DHT22;5396;50.950;6.988;2023-06-04T04:50:30;13.20;99.90
10692;DHT22;5396;50.950;6.988;2023-06-04T04:52:57;13.20;99.90
10692;DHT22;5396;50.950;6.988;2023-06-04T04:55:23;13.20;99.90
10692;DHT22;5396;50.950;6.988;2023-06-04T04:57:48;13.30;99.90
10692;DHT22;5396;50.950;6.988;2023-06-04T05:00:14;13.30;99.90
10692;DHT22;5396;50.950;6.988;2023-06-04T05:02:41;13.30;99.90
10692;DHT22;5396;50.950;6.988;2023-06-04T05:05:06;13.30;99.90
10692;DHT22;5396;50.950;6.988;2023-06-04T05:07:32;13.40;99.90
10692;DHT22;5396;50.950;6.988;2023-06-04T05:09:58;13.40;99.90
10692;DHT22;5396;50.950;6.988;2023-06-04T05:12:25;13.50;99.90
10692;DHT22;5396;50.950;6.988;2023-06-04T05:14:51;13.50;99.90
10692;DHT22;5396;50.950;6.988;2023-06-04T05:17:17;13.60;99.90
10692;DHT22;5396;50.950;6.988;2023-06-04T05:19:47;13.60;99.90
10692;DHT22;5396;50.950;6.988;2023-06-04T05:22:12;13.60;99.90
10692;DHT22;5396;50.950;6.988;2023-06-04T05:24:41;13.70;99.90
10692;DHT22;5396;50.950;6.988;2023-06-04T05:27:06;13.70;99.90
10692;DHT22;5396;50.950;6.988;2023-06-04T05:29:34;13.70;99.90
10692;DHT22;5396;50.950;6.988;2023-06-04T05:32:00;13.80;99.90
10692;DHT22;5396;50.950;6.988;2023-06-04T05:34:26;13.90;99.90
10692;DHT22;5396;50.950;6.988;2023-06-04T05:36:52;13.90;99.90
10692;DHT22;5396;50.950;6.988;2023-06-04T05:39:18;13.90;99.90
10692;DHT22;5396;50.950;6.988;2023-06-04T05:41:44;14.00;99.90
10692;DHT22;5396;50.950;6.988;2023-06-04T05:44:10;14.00;99.90
10692;DHT22;5396;50.950;6.988;2023-06-04T05:46:36;14.10;99.90
10692;DHT22;5396;50.950;6.988;2023-06-04T05:49:02;14.10;99.90
10692;DHT22;5396;50.950;6.988;2023-06-04T05:51:27;14.10;99.90
10692;DHT22;5396;50.950;6.988;2023-06-04T05:53:54;14.20;99.90
10692;DHT22;5396;50.950;6.988;2023-06-04T05:56:20;14.20;99.90
10692;DHT22;5396;50.950;6.988;2023-06-04T05:58:51;14.30;99.90
10692;DHT22;5396;50.950;6.988;2023-06-04T06:01:17;14.30;99.90
10692;DHT22;5396;50.950;6.988;2023-06-04T06:03:43;14.40;99.90
10692;DHT22;5396;50.950;6.988;2023-06-04T06:06:08;14.50;99.90
10692;DHT22;5396;50.950;6.988;2023-06-04T06:08:35;14.60;99.90
10692;DHT22;5396;50.950;6.988;2023-06-04T06:11:01;14.70;99.90
10692;DHT22;5396;50.950;6.988;2023-06-04T06:13:29;14.70;99.90
10692;DHT22;5396;50.950;6.988;2023-06-04T06:15:55;14.80;99.90
10692;DHT22;5396;50.950;6.988;2023-06-04T06:18:21;14.90;99.90
10692;DHT22;5396;50.950;6.988;2023-06-04T06:20:46;15.00;99.90
10692;DHT22;5396;50.950;6.988;2023-06-04T06:23:12;15.10;99.90
10692;DHT22;5396;50.950;6.988;2023-06-04T06:25:38;15.20;99.90
10692;DHT22;5396;50.950;6.988;2023-06-04T06:28:06;15.30;99.90
10692;DHT22;5396;50.950;6.988;2023-06-04T06:30:31;15.30;99.90
10692;DHT22;5396;50.950;6.988;2023-06-04T06:32:57;15.40;99.90
10692;DHT22;5396;50.950;6.988;2023-06-04T06:35:22;15.50;99.90
10692;DHT22;5396;50.950;6.988;2023-06-04T06:37:48;15.60;99.90
10692;DHT22;5396;50.950;6.988;2023-06-04T06:40:14;15.60;99.90
10692;DHT22;5396;50.950;6.988;2023-06-04T06:42:39;15.70;99.90
10692;DHT22;5396;50.950;6.988;2023-06-04T06:45:05;15.80;99.90
10692;DHT22;5396;50.950;6.988;2023-06-04T06:47:31;15.90;99.90
10692;DHT22;5396;50.950;6.988;2023-06-04T06:49:57;16.00;99.90
10692;DHT22;5396;50.950;6.988;2023-06-04T06:52:22;16.00;99.90
10692;DHT22;5396;50.950;6.988;2023-06-04T06:54:48;16.10;99.90
10692;DHT22;5396;50.950;6.988;2023-06-04T06:57:14;16.20;99.90
10692;DHT22;5396;50.950;6.988;2023-06-04T06:59:40;16.30;99.90
10692;DHT22;5396;50.950;6.988;2023-06-04T07:02:06;16.30;99.90
10692;DHT22;5396;50.950;6.988;2023-06-04T07:04:32;16.40;99.90
10692;DHT22;5396;50.950;6.988;2023-06-04T07:06:58;16.40;99.90
10692;DHT22;5396;50.950;6.988;2023-06-04T07:09:23;16.50;99.90
10692;DHT22;5396;50.950;6.988;2023-06-04T07:11:49;16.60;99.90
10692;DHT22;5396;50.950;6.988;2023-06-04T07:14:14;16.70;99.90
10692;DHT22;5396;50.950;6.988;2023-06-04T07:16:40;16.70;99.90
10692;DHT22;5396;50.950;6.988;2023-06-04T07:19:06;16.80;99.90
10692;DHT22;5396;50.950;6.988;2023-06-04T07:21:33;16.90;99.90
10692;DHT22;5396;50.950;6.988;2023-06-04T07:23:58;16.90;99.90
10692;DHT22;5396;50.950;6.988;2023-06-04T07:26:24;17.00;99.90
10692;DHT22;5396;50.950;6.988;2023-06-04T07:28:51;17.10;99.90
10692;DHT22;5396;50.950;6.988;2023-06-04T07:31:17;17.20;99.90
10692;DHT22;5396;50.950;6.988;2023-06-04T07:33:43;17.30;99.90
10692;DHT22;5396;50.950;6.988;2023-06-04T07:36:17;17.50;99.90
10692;DHT22;5396;50.950;6.988;2023-06-04T07:38:43;17.50;99.90
10692;DHT22;5396;50.950;6.988;2023-06-04T07:41:09;17.60;99.90
10692;DHT22;5396;50.950;6.988;2023-06-04T07:43:36;17.70;99.90
10692;DHT22;5396;50.950;6.988;2023-06-04T07:46:05;17.80;99.90
10692;DHT22;5396;50.950;6.988;2023-06-04T07:48:31;17.90;99.90
10692;DHT22;5396;50.950;6.988;2023-06-04T07:50:58;18.00;99.90
10692;DHT22;5396;50.950;6.988;2023-06-04T07:53:23;18.00;99.90
10692;DHT22;5396;50.950;6.988;2023-06-04T07:55:49;18.10;99.90
10692;DHT22;5396;50.950;6.988;2023-06-04T07:58:15;18.20;99.90
10692;DHT22;5396;50.950;6.988;2023-06-04T08:00:41;18.40;99.90
10692;DHT22;5396;50.950;6.988;2023-06-04T08:03:06;18.40;99.90
10692;DHT22;5396;50.950;6.988;2023-06-04T08:05:32;18.50;99.90
10692;DHT22;5396;50.950;6.988;2023-06-04T08:07:58;18.50;99.90
10692;DHT22;5396;50.950;6.988;2023-06-04T08:10:23;18.60;99.90
10692;DHT22;5396;50.950;6.988;2023-06-04T08:12:49;18.70;99.90
10692;DHT22;5396;50.950;6.988;2023-06-04T08:15:14;18.80;99.90
10692;DHT22;5396;50.950;6.988;2023-06-04T08:17:40;19.00;99.90
10692;DHT22;5396;50.950;6.988;2023-06-04T08:20:06;19.10;99.90
10692;DHT22;5396;50.950;6.988;2023-06-04T08:22:32;19.20;99.90
10692;DHT22;5396;50.950;6.988;2023-06-04T08:24:57;19.40;99.90
10692;DHT22;5396;50.950;6.988;2023-06-04T08:27:23;19.60;99.90
10692;DHT22;5396;50.950;6.988;2023-06-04T08:29:49;19.80;99.90
10692;DHT22;5396;50.950;6.988;2023-06-04T08:32:14;20.00;99.90
10692;DHT22;5396;50.950;6.988;2023-06-04T08:34:40;20.10;99.90
10692;DHT22;5396;50.950;6.988;2023-06-04T08:37:06;20.20;99.90
10692;DHT22;5396;50.950;6.988;2023-06-04T08:39:32;20.30;99.90
10692;DHT22;5396;50.950;6.988;2023-06-04T08:42:06;20.40;99.90
10692;DHT22;5396;50.950;6.988;2023-06-04T08:44:33;20.50;99.90
10692;DHT22;5396;50.950;6.988;2023-06-04T08:47:03;20.60;99.90
10692;DHT22;5396;50.950;6.988;2023-06-04T08:49:34;20.70;99.90
10692;DHT22;5396;50.950;6.988;2023-06-04T08:52:02;20.80;99.90
10692;DHT22;5396;50.950;6.988;2023-06-04T08:54:28;20.80;99.90
10692;DHT22;5396;50.950;6.988;2023-06-04T08:56:56;20.90;99.90
10692;DHT22;5396;50.950;6.988;2023-06-04T08:59:23;20.80;99.90
10692;DHT22;5396;50.950;6.988;2023-06-04T09:01:53;20.90;99.90
10692;DHT22;5396;50.950;6.988;2023-06-04T09:04:18;20.90;99.90
10692;DHT22;5396;50.950;6.988;2023-06-04T09:06:44;20.90;99.90
10692;DHT22;5396;50.950;6.988;2023-06-04T09:09:12;21.00;99.90
10692;DHT22;5396;50.950;6.988;2023-06-04T09:11:54;21.00;99.90
10692;DHT22;5396;50.950;6.988;2023-06-04T09:14:21;21.10;99.90
10692;DHT22;5396;50.950;6.988;2023-06-04T09:16:51;21.20;99.90
10692;DHT22;5396;50.950;6.988;2023-06-04T09:19:18;21.20;99.90
10692;DHT22;5396;50.950;6.988;2023-06-04T09:21:48;21.20;99.90
10692;DHT22;5396;50.950;6.988;2023-06-04T09:24:14;21.20;99.90
10692;DHT22;5396;50.950;6.988;2023-06-04T09:26:40;21.30;99.90
10692;DHT22;5396;50.950;6.988;2023-06-04T09:29:05;21.30;99.90
10692;DHT22;5396;50.950;6.988;2023-06-04T09:31:32;21.40;99.90
10692;DHT22;5396;50.950;6.988;2023-06-04T09:34:04;21.40;99.90
10692;DHT22;5396;50.950;6.988;2023-06-04T09:36:31;21.40;99.90
10692;DHT22;5396;50.950;6.988;2023-06-04T09:38:57;21.50;99.90
10692;DHT22;5396;50.950;6.988;2023-06-04T09:41:22;21.70;99.90
10692;DHT22;5396;50.950;6.988;2023-06-04T09:43:48;21.80;99.90
10692;DHT22;5396;50.950;6.988;2023-06-04T09:46:16;21.70;99.90
10692;DHT22;5396;50.950;6.988;2023-06-04T09:48:43;21.70;99.90
10692;DHT22;5396;50.950;6.988;2023-06-04T09:53:36;21.80;99.90
10692;DHT22;5396;50.950;6.988;2023-06-04T09:56:03;21.90;99.90
10692;DHT22;5396;50.950;6.988;2023-06-04T09:58:29;21.90;99.90
10692;DHT22;5396;50.950;6.988;2023-06-04T10:00:56;21.90;99.90
10692;DHT22;5396;50.950;6.988;2023-06-04T10:03:25;21.90;99.90
10692;DHT22;5396;50.950;6.988;2023-06-04T10:05:57;21.90;99.90
10692;DHT22;5396;50.950;6.988;2023-06-04T10:08:23;21.90;99.90
10692;DHT22;5396;50.950;6.988;2023-06-04T10:10:55;21.90;99.90
10692;DHT22;5396;50.950;6.988;2023-06-04T10:13:24;22.10;99.90
10692;DHT22;5396;50.950;6.988;2023-06-04T10:15:51;22.10;99.90
10692;DHT22;5396;50.950;6.988;2023-06-04T10:18:18;22.20;99.90
10692;DHT22;5396;50.950;6.988;2023-06-04T10:20:45;22.30;99.90
10692;DHT22;5396;50.950;6.988;2023-06-04T10:23:11;22.30;99.90
10692;DHT22;5396;50.950;6.988;2023-06-04T10:25:38;22.30;99.90
10692;DHT22;5396;50.950;6.988;2023-06-04T10:28:04;22.30;99.90
10692;DHT22;5396;50.950;6.988;2023-06-04T10:30:30;22.40;99.90
10692;DHT22;5396;50.950;6.988;2023-06-04T10:32:58;22.40;99.90
10692;DHT22;5396;50.950;6.988;2023-06-04T10:35:34;22.40;99.90
10692;DHT22;5396;50.950;6.988;2023-06-04T10:38:13;22.50;99.90
10692;DHT22;5396;50.950;6.988;2023-06-04T10:40:41;22.70;99.90
10692;DHT22;5396;50.950;6.988;2023-06-04T10:43:09;22.80;99.90
10692;DHT22;5396;50.950;6.988;2023-06-04T10:45:35;22.90;99.90
10692;DHT22;5396;50.950;6.988;2023-06-04T10:48:05;23.00;99.90
10692;DHT22;5396;50.950;6.988;2023-06-04T10:50:32;23.00;99.90
10692;DHT22;5396;50.950;6.988;2023-06-04T10:52:58;23.00;99.90
10692;DHT22;5396;50.950;6.988;2023-06-04T10:55:25;23.10;99.90
10692;DHT22;5396;50.950;6.988;2023-06-04T10:58:01;23.20;99.90
10692;DHT22;5396;50.950;6.988;2023-06-04T11:00:37;23.10;99.90
10692;DHT22;5396;50.950;6.988;2023-06-04T11:03:05;23.20;99.90
10692;DHT22;5396;50.950;6.988;2023-06-04T11:05:43;23.30;99.90
10692;DHT22;5396;50.950;6.988;2023-06-04T11:08:09;23.40;99.90
10692;DHT22;5396;50.950;6.988;2023-06-04T11:10:45;23.40;99.90
10692;DHT22;5396;50.950;6.988;2023-06-04T11:13:11;23.20;99.90
10692;DHT22;5396;50.950;6.988;2023-06-04T11:15:41;23.10;99.90
10692;DHT22;5396;50.950;6.988;2023-06-04T11:18:07;23.10;99.90
10692;DHT22;5396;50.950;6.988;2023-06-04T11:20:33;23.20;99.90
10692;DHT22;5396;50.950;6.988;2023-06-04T11:22:59;23.20;99.90
10692;DHT22;5396;50.950;6.988;2023-06-04T11:25:27;23.20;99.90
10692;DHT22;5396;50.950;6.988;2023-06-04T11:27:54;23.30;99.90
10692;DHT22;5396;50.950;6.988;2023-06-04T11:30:21;23.30;99.90
10692;DHT22;5396;50.950;6.988;2023-06-04T11:32:47;23.40;99.90
10692;DHT22;5396;50.950;6.988;2023-06-04T11:35:13;23.50;99.90
10692;DHT22;5396;50.950;6.988;2023-06-04T11:37:39;23.60;99.90
10692;DHT22;5396;50.950;6.988;2023-06-04T11:40:19;23.60;99.90
10692;DHT22;5396;50.950;6.988;2023-06-04T11:42:48;23.70;99.90
10692;DHT22;5396;50.950;6.988;2023-06-04T11:45:16;23.90;99.90
10692;DHT22;5396;50.950;6.988;2023-06-04T11:47:46;24.00;99.90
10692;DHT22;5396;50.950;6.988;2023-06-04T11:50:12;24.10;99.90
10692;DHT22;5396;50.950;6.988;2023-06-04T11:52:37;24.20;99.90
10692;DHT22;5396;50.950;6.988;2023-06-04T11:55:05;24.20;99.90
10692;DHT22;5396;50.950;6.988;2023-06-04T11:57:32;24.10;99.90
10692;DHT22;5396;50.950;6.988;2023-06-04T11:59:58;24.00;99.90
10692;DHT22;5396;50.950;6.988;2023-06-04T12:02:24;23.90;99.90
10692;DHT22;5396;50.950;6.988;2023-06-04T12:04:50;24.00;99.90
10692;DHT22;5396;50.950;6.988;2023-06-04T12:07:20;24.20;99.90
10692;DHT22;5396;50.950;6.988;2023-06-04T12:09:49;24.20;99.90
10692;DHT22;5396;50.950;6.988;2023-06-04T12:12:21;24.30;99.90
10692;DHT22;5396;50.950;6.988;2023-06-04T12:14:46;24.40;99.90
10692;DHT22;5396;50.950;6.988;2023-06-04T12:17:12;24.50;99.90
10692;DHT22;5396;50.950;6.988;2023-06-04T12:19:49;24.50;99.90
10692;DHT22;5396;50.950;6.988;2023-06-04T12:22:15;24.60;99.90
10692;DHT22;5396;50.950;6.988;2023-06-04T12:24:52;24.90;99.90
10692;DHT22;5396;50.950;6.988;2023-06-04T12:27:19;25.10;99.90
10692;DHT22;5396;50.950;6.988;2023-06-04T12:30:04;25.20;99.90
10692;DHT22;5396;50.950;6.988;2023-06-04T12:32:36;25.10;99.90
10692;DHT22;5396;50.950;6.988;2023-06-04T12:35:02;24.90;99.90
10692;DHT22;5396;50.950;6.988;2023-06-04T12:37:28;25.40;99.90
10692;DHT22;5396;50.950;6.988;2023-06-04T12:39:54;26.70;99.90
10692;DHT22;5396;50.950;6.988;2023-06-04T12:42:20;28.30;99.90
10692;DHT22;5396;50.950;6.988;2023-06-04T12:44:46;29.90;99.90
10692;DHT22;5396;50.950;6.988;2023-06-04T12:47:12;30.20;99.90
10692;DHT22;5396;50.950;6.988;2023-06-04T12:49:38;30.60;99.90
10692;DHT22;5396;50.950;6.988;2023-06-04T12:52:04;30.90;99.90
10692;DHT22;5396;50.950;6.988;2023-06-04T12:54:31;31.40;99.90
10692;DHT22;5396;50.950;6.988;2023-06-04T12:56:57;31.70;99.90
10692;DHT22;5396;50.950;6.988;2023-06-04T12:59:27;32.20;99.90
10692;DHT22;5396;50.950;6.988;2023-06-04T13:01:53;32.90;99.90
10692;DHT22;5396;50.950;6.988;2023-06-04T13:04:19;33.40;99.90
10692;DHT22;5396;50.950;6.988;2023-06-04T13:06:45;34.00;99.90
10692;DHT22;5396;50.950;6.988;2023-06-04T13:09:13;34.50;99.90
10692;DHT22;5396;50.950;6.988;2023-06-04T13:11:40;34.90;99.90
10692;DHT22;5396;50.950;6.988;2023-06-04T13:14:07;34.80;99.90
10692;DHT22;5396;50.950;6.988;2023-06-04T13:16:32;34.50;99.90
10692;DHT22;5396;50.950;6.988;2023-06-04T13:18:58;34.60;99.90
10692;DHT22;5396;50.950;6.988;2023-06-04T13:21:24;34.50;99.90
10692;DHT22;5396;50.950;6.988;2023-06-04T13:23:49;34.90;99.90
10692;DHT22;5396;50.950;6.988;2023-06-04T13:26:16;35.10;99.90
10692;DHT22;5396;50.950;6.988;2023-06-04T13:28:42;34.80;99.90
10692;DHT22;5396;50.950;6.988;2023-06-04T13:31:07;34.70;99.90
10692;DHT22;5396;50.950;6.988;2023-06-04T13:33:33;34.00;99.90
10692;DHT22;5396;50.950;6.988;2023-06-04T13:36:00;34.10;99.90
10692;DHT22;5396;50.950;6.988;2023-06-04T13:38:27;34.80;99.90
10692;DHT22;5396;50.950;6.988;2023-06-04T13:40:53;35.40;99.90
10692;DHT22;5396;50.950;6.988;2023-06-04T13:43:18;36.10;99.90
10692;DHT22;5396;50.950;6.988;2023-06-04T13:45:44;36.50;99.90
10692;DHT22;5396;50.950;6.988;2023-06-04T13:48:11;37.00;99.90
10692;DHT22;5396;50.950;6.988;2023-06-04T13:50:37;36.90;99.90
10692;DHT22;5396;50.950;6.988;2023-06-04T13:53:03;36.10;99.90
10692;DHT22;5396;50.950;6.988;2023-06-04T13:55:29;35.50;99.90
10692;DHT22;5396;50.950;6.988;2023-06-04T13:57:55;34.40;99.90
10692;DHT22;5396;50.950;6.988;2023-06-04T14:00:20;33.90;99.90
10692;DHT22;5396;50.950;6.988;2023-06-04T14:02:47;34.40;99.90
10692;DHT22;5396;50.950;6.988;2023-06-04T14:05:13;35.50;99.90
10692;DHT22;5396;50.950;6.988;2023-06-04T14:07:40;36.20;99.90
10692;DHT22;5396;50.950;6.988;2023-06-04T14:10:07;36.60;99.90
10692;DHT22;5396;50.950;6.988;2023-06-04T14:12:32;36.50;99.90
10692;DHT22;5396;50.950;6.988;2023-06-04T14:14:58;35.80;99.90
10692;DHT22;5396;50.950;6.988;2023-06-04T14:17:23;36.40;99.90
10692;DHT22;5396;50.950;6.988;2023-06-04T14:19:49;37.00;99.90
10692;DHT22;5396;50.950;6.988;2023-06-04T14:22:15;37.50;99.90
10692;DHT22;5396;50.950;6.988;2023-06-04T14:24:40;37.50;99.90
10692;DHT22;5396;50.950;6.988;2023-06-04T14:27:07;37.10;99.90
10692;DHT22;5396;50.950;6.988;2023-06-04T14:29:34;37.10;99.90
10692;DHT22;5396;50.950;6.988;2023-06-04T14:32:00;36.60;99.90
10692;DHT22;5396;50.950;6.988;2023-06-04T14:34:25;35.80;99.90
10692;DHT22;5396;50.950;6.988;2023-06-04T14:36:51;34.90;99.90
10692;DHT22;5396;50.950;6.988;2023-06-04T14:39:16;33.30;99.90
10692;DHT22;5396;50.950;6.988;2023-06-04T14:41:42;32.30;99.90
10692;DHT22;5396;50.950;6.988;2023-06-04T14:44:08;31.60;99.90
10692;DHT22;5396;50.950;6.988;2023-06-04T14:46:33;31.00;99.90
10692;DHT22;5396;50.950;6.988;2023-06-04T14:49:00;31.00;99.90
10692;DHT22;5396;50.950;6.988;2023-06-04T14:51:25;30.70;99.90
10692;DHT22;5396;50.950;6.988;2023-06-04T14:53:51;30.10;99.90
10692;DHT22;5396;50.950;6.988;2023-06-04T14:56:17;28.90;99.90
10692;DHT22;5396;50.950;6.988;2023-06-04T14:58:43;28.20;99.90
10692;DHT22;5396;50.950;6.988;2023-06-04T15:01:09;27.80;99.90
10692;DHT22;5396;50.950;6.988;2023-06-04T15:03:38;27.40;99.90
10692;DHT22;5396;50.950;6.988;2023-06-04T15:06:04;27.20;99.90
10692;DHT22;5396;50.950;6.988;2023-06-04T15:08:29;27.20;99.90
10692;DHT22;5396;50.950;6.988;2023-06-04T15:10:55;27.00;99.90
10692;DHT22;5396;50.950;6.988;2023-06-04T15:13:20;27.00;99.90
10692;DHT22;5396;50.950;6.988;2023-06-04T15:15:46;26.90;99.90
10692;DHT22;5396;50.950;6.988;2023-06-04T15:18:11;27.00;99.90
10692;DHT22;5396;50.950;6.988;2023-06-04T15:20:37;27.00;99.90
10692;DHT22;5396;50.950;6.988;2023-06-04T15:23:03;26.70;99.90
10692;DHT22;5396;50.950;6.988;2023-06-04T15:25:28;26.60;99.90
10692;DHT22;5396;50.950;6.988;2023-06-04T15:27:54;26.40;99.90
10692;DHT22;5396;50.950;6.988;2023-06-04T15:30:19;26.30;99.90
10692;DHT22;5396;50.950;6.988;2023-06-04T15:32:46;26.40;99.90
10692;DHT22;5396;50.950;6.988;2023-06-04T15:35:12;26.40;99.90
10692;DHT22;5396;50.950;6.988;2023-06-04T15:37:37;26.30;99.90
10692;DHT22;5396;50.950;6.988;2023-06-04T15:40:04;26.60;99.90
10692;DHT22;5396;50.950;6.988;2023-06-04T15:42:32;26.90;99.90
10692;DHT22;5396;50.950;6.988;2023-06-04T15:44:58;26.80;99.90
10692;DHT22;5396;50.950;6.988;2023-06-04T15:47:23;26.70;99.90
10692;DHT22;5396;50.950;6.988;2023-06-04T15:49:49;26.50;99.90
10692;DHT22;5396;50.950;6.988;2023-06-04T15:52:15;26.30;99.90